KATY

Watertown Regional Airport

Watertown, South Dakota, USA
METAR KATY 191853Z AUTO 05011KT 3SM -RA BR OVC005 15/15 A2997 RMK AO2 CIG 003V008 SLP147 P0006 T01500150
Observed Flight Rules
Sep-19 @ 18:53 UTC (23 minutes ago) Instrument Flight Rules
Wind Visibility Clouds Conditions
50° at 11 knots 3 miles
  • Overcast at 500' AGL
  • Light Rain
  • Mist
Temperatures Readings Precipitation
Current 15°C / 59°F
Dewpoint 15°C / 59°F
Humidity 100%
Altimeter 29.97" Hg
Pressure 1014.7 hPa
Elevation 532
Current Rain 0.06
METAR KATY 191853Z AUTO 05011KT 3SM -RA BR OVC005 15/15 A2997 RMK AO2 CIG 003V008 SLP147 P0006 T01500150
Observed Flight Rules
Sep-19 @ 18:53 UTC
(23 minutes ago)
IFR
Wind Visibility
50° at 11 knots 3 miles
Clouds
  • Overcast at 500' AGL
Conditions
  • Light Rain
  • Mist
Temperature Dewpoint
15°C / 59°F 15°C / 59°F
Humidity Altimeter Pressure
100% 29.97" Hg 1014.7 hPa
Current Rain
0.06